Aviation Digital Data Service (ADDS)

Output produced by METARs form (1229 UTC 19 January 2019)
found at http://www.aviationweather.gov/metar/data/
 
METAR text: KMHT 191153Z 35008KT 10SM FEW050 SCT200 M06/M12 A3025 RMK AO2 SLP264 T10561122 10000 21056 53027
Conditions at: KMHT (MANCHESTER , NH, US) observed 1153 UTC 19 January 2019
Temperature: -5.6°C (22°F)
Dewpoint: -12.2°C (10°F) [RH = 60%]
Pressure (altimeter): 30.25 inches Hg (1024.5 mb)
[Sea-level pressure: 1026.4 mb]
Winds: from the N (350 degrees) at 9 MPH (8 knots; 4.1 m/s)
Visibility: 10 or more miles (16+ km)
Ceiling: at least 12,000 feet AGL
Clouds: few clouds at 5000 feet AGL
scattered clouds at 20000 feet AGL
Weather: no significant weather observed at this time

METAR text: KMHT 191053Z 02007KT 10SM FEW047 SCT200 M04/M11 A3022 RMK AO2 SLP250 T10441106
Conditions at: KMHT (MANCHESTER , NH, US) observed 1053 UTC 19 January 2019
Temperature: -4.4°C (24°F)
Dewpoint: -10.6°C (13°F) [RH = 62%]
Pressure (altimeter): 30.22 inches Hg (1023.5 mb)
[Sea-level pressure: 1025.0 mb]
Winds: from the NNE (20 degrees) at 8 MPH (7 knots; 3.6 m/s)
Visibility: 10 or more miles (16+ km)
Ceiling: at least 12,000 feet AGL
Clouds: few clouds at 4700 feet AGL
scattered clouds at 20000 feet AGL
Weather: no significant weather observed at this time

METAR text: KMHT 190953Z 36009KT 10SM FEW047 BKN200 M04/M10 A3020 RMK AO2 SLP244 T10391100
Conditions at: KMHT (MANCHESTER , NH, US) observed 0953 UTC 19 January 2019
Temperature: -3.9°C (25°F)
Dewpoint: -10.0°C (14°F) [RH = 62%]
Pressure (altimeter): 30.20 inches Hg (1022.8 mb)
[Sea-level pressure: 1024.4 mb]
Winds: from the N (360 degrees) at 10 MPH (9 knots; 4.6 m/s)
Visibility: 10 or more miles (16+ km)
Ceiling: 20000 feet AGL
Clouds: few clouds at 4700 feet AGL
broken clouds at 20000 feet AGL
Weather: no significant weather observed at this time

METAR text: KMHT 190853Z 35009KT 10SM FEW047 FEW200 M03/M08 A3017 RMK AO2 SLP236 T10281083 53025
Conditions at: KMHT (MANCHESTER , NH, US) observed 0853 UTC 19 January 2019
Temperature: -2.8°C (27°F)
Dewpoint: -8.3°C (17°F) [RH = 66%]
Pressure (altimeter): 30.17 inches Hg (1021.8 mb)
[Sea-level pressure: 1023.6 mb]
Winds: from the N (350 degrees) at 10 MPH (9 knots; 4.6 m/s)
Visibility: 10 or more miles (16+ km)
Ceiling: at least 12,000 feet AGL
Clouds: few clouds at 4700 feet AGL
few clouds at 20000 feet AGL
Weather: no significant weather observed at this time

METAR text: KMHT 190753Z VRB03KT 10SM BKN047 BKN200 M03/M09 A3014 RMK AO2 SLP225 T10281094
Conditions at: KMHT (MANCHESTER , NH, US) observed 0753 UTC 19 January 2019
Temperature: -2.8°C (27°F)
Dewpoint: -9.4°C (15°F) [RH = 60%]
Pressure (altimeter): 30.14 inches Hg (1020.7 mb)
[Sea-level pressure: 1022.5 mb]
Winds: variable direction winds at 3 MPH (3 knots; 1.5 m/s)
Visibility: 10 or more miles (16+ km)
Ceiling: 4700 feet AGL
Clouds: broken clouds at 4700 feet AGL
broken clouds at 20000 feet AGL
Weather: no significant weather observed at this time

METAR text: KMHT 190653Z 31003KT 10SM FEW040 BKN250 M01/M10 A3012 RMK AO2 SLP219 T10061100
Conditions at: KMHT (MANCHESTER , NH, US) observed 0653 UTC 19 January 2019
Temperature: -0.6°C (31°F)
Dewpoint: -10.0°C (14°F) [RH = 49%]
Pressure (altimeter): 30.12 inches Hg (1020.1 mb)
[Sea-level pressure: 1021.9 mb]
Winds: from the NW (310 degrees) at 3 MPH (3 knots; 1.5 m/s)
Visibility: 10 or more miles (16+ km)
Ceiling: 25000 feet AGL
Clouds: few clouds at 4000 feet AGL
broken clouds at 25000 feet AGL
Weather: no significant weather observed at this time

METAR text: KMHT 190553Z 32004KT 10SM FEW038 OVC250 00/M09 A3010 RMK AO2 SLP211 T00001094 10017 20000 51019
Conditions at: KMHT (MANCHESTER , NH, US) observed 0553 UTC 19 January 2019
Temperature: 0.0°C (32°F)
Dewpoint: -9.4°C (15°F) [RH = 49%]
Pressure (altimeter): 30.10 inches Hg (1019.4 mb)
[Sea-level pressure: 1021.1 mb]
Winds: from the NW (320 degrees) at 5 MPH (4 knots; 2.1 m/s)
Visibility: 10 or more miles (16+ km)
Ceiling: 25000 feet AGL
Clouds: few clouds at 3800 feet AGL
overcast cloud deck at 25000 feet AGL
Weather: no significant weather observed at this time

METAR text: KMHT 190453Z 28008KT 10SM FEW038 BKN250 01/M09 A3009 RMK AO2 SLP207 T00111089 400171067
Conditions at: KMHT (MANCHESTER , NH, US) observed 0453 UTC 19 January 2019
Temperature: 1.1°C (34°F)
Dewpoint: -8.9°C (16°F) [RH = 47%]
Pressure (altimeter): 30.09 inches Hg (1019.0 mb)
[Sea-level pressure: 1020.7 mb]
Winds: from the W (280 degrees) at 9 MPH (8 knots; 4.1 m/s)
Visibility: 10 or more miles (16+ km)
Ceiling: 25000 feet AGL
Clouds: few clouds at 3800 feet AGL
broken clouds at 25000 feet AGL
Weather: no significant weather observed at this time

METAR text: KMHT 190353Z 29007KT 10SM BKN038 BKN250 02/M07 A3007 RMK AO2 SLP201 T00171067
Conditions at: KMHT (MANCHESTER , NH, US) observed 0353 UTC 19 January 2019
Temperature: 1.7°C (35°F)
Dewpoint: -6.7°C (20°F) [RH = 54%]
Pressure (altimeter): 30.07 inches Hg (1018.4 mb)
[Sea-level pressure: 1020.1 mb]
Winds: from the WNW (290 degrees) at 8 MPH (7 knots; 3.6 m/s)
Visibility: 10 or more miles (16+ km)
Ceiling: 3800 feet AGL
Clouds: broken clouds at 3800 feet AGL
broken clouds at 25000 feet AGL
Weather: no significant weather observed at this time

METAR text: KMHT 190253Z 29004KT 10SM BKN040 BKN250 01/M05 A3004 RMK AO2 SLP192 T00111050 53010
Conditions at: KMHT (MANCHESTER , NH, US) observed 0253 UTC 19 January 2019
Temperature: 1.1°C (34°F)
Dewpoint: -5.0°C (23°F) [RH = 64%]
Pressure (altimeter): 30.04 inches Hg (1017.4 mb)
[Sea-level pressure: 1019.2 mb]
Winds: from the WNW (290 degrees) at 5 MPH (4 knots; 2.1 m/s)
Visibility: 10 or more miles (16+ km)
Ceiling: 4000 feet AGL
Clouds: broken clouds at 4000 feet AGL
broken clouds at 25000 feet AGL
Weather: no significant weather observed at this time

METAR text: KMHT 190153Z VRB03KT 10SM SCT038 BKN250 01/M04 A3003 RMK AO2 SLP188 T00111044
Conditions at: KMHT (MANCHESTER , NH, US) observed 0153 UTC 19 January 2019
Temperature: 1.1°C (34°F)
Dewpoint: -4.4°C (24°F) [RH = 67%]
Pressure (altimeter): 30.03 inches Hg (1017.0 mb)
[Sea-level pressure: 1018.8 mb]
Winds: variable direction winds at 3 MPH (3 knots; 1.5 m/s)
Visibility: 10 or more miles (16+ km)
Ceiling: 25000 feet AGL
Clouds: scattered clouds at 3800 feet AGL
broken clouds at 25000 feet AGL
Weather: no significant weather observed at this time

METAR text: KMHT 190053Z 29003KT 10SM SCT080 01/M04 A3003 RMK AO2 SLP187 T00111039
Conditions at: KMHT (MANCHESTER , NH, US) observed 0053 UTC 19 January 2019
Temperature: 1.1°C (34°F)
Dewpoint: -3.9°C (25°F) [RH = 69%]
Pressure (altimeter): 30.03 inches Hg (1017.0 mb)
[Sea-level pressure: 1018.7 mb]
Winds: from the WNW (290 degrees) at 3 MPH (3 knots; 1.5 m/s)
Visibility: 10 or more miles (16+ km)
Ceiling: at least 12,000 feet AGL
Clouds: scattered clouds at 8000 feet AGL
Weather: no significant weather observed at this time

METAR text: KMHT 182353Z 24006KT 10SM OVC060 02/M04 A3001 RMK AO2 SLP183 60000 T00171039 10017 21006 53009
Conditions at: KMHT (MANCHESTER , NH, US) observed 2353 UTC 18 January 2019
Temperature: 1.7°C (35°F)
Dewpoint: -3.9°C (25°F) [RH = 66%]
Pressure (altimeter): 30.01 inches Hg (1016.3 mb)
[Sea-level pressure: 1018.3 mb]
Winds: from the WSW (240 degrees) at 7 MPH (6 knots; 3.1 m/s)
Visibility: 10 or more miles (16+ km)
Ceiling: 6000 feet AGL
Clouds: overcast cloud deck at 6000 feet AGL
Weather: no significant weather observed at this time

METAR text: KMHT 182253Z 17004KT 10SM OVC050 01/M04 A2999 RMK AO2 SLP176 T00111039
Conditions at: KMHT (MANCHESTER , NH, US) observed 2253 UTC 18 January 2019
Temperature: 1.1°C (34°F)
Dewpoint: -3.9°C (25°F) [RH = 69%]
Pressure (altimeter): 29.99 inches Hg (1015.7 mb)
[Sea-level pressure: 1017.6 mb]
Winds: from the S (170 degrees) at 5 MPH (4 knots; 2.1 m/s)
Visibility: 10 or more miles (16+ km)
Ceiling: 5000 feet AGL
Clouds: overcast cloud deck at 5000 feet AGL
Weather: no significant weather observed at this time

METAR text: KMHT 182153Z 00000KT 10SM FEW030 BKN050 OVC070 01/M04 A3000 RMK AO2 SLP178 SNB25E42 P0000 T00061044
Conditions at: KMHT (MANCHESTER , NH, US) observed 2153 UTC 18 January 2019
Temperature: 0.6°C (33°F)
Dewpoint: -4.4°C (24°F) [RH = 69%]
Pressure (altimeter): 30.00 inches Hg (1016.0 mb)
[Sea-level pressure: 1017.8 mb]
Winds: calm
Visibility: 10 or more miles (16+ km)
Ceiling: 5000 feet AGL
Clouds: few clouds at 3000 feet AGL
broken clouds at 5000 feet AGL
overcast cloud deck at 7000 feet AGL
Weather: no significant weather observed at this time

METAR text: KMHT 182053Z 00000KT 10SM OVC030 02/M05 A2999 RMK AO2 SLP172 T00171050 56014
Conditions at: KMHT (MANCHESTER , NH, US) observed 2053 UTC 18 January 2019
Temperature: 1.7°C (35°F)
Dewpoint: -5.0°C (23°F) [RH = 61%]
Pressure (altimeter): 29.99 inches Hg (1015.7 mb)
[Sea-level pressure: 1017.2 mb]
Winds: calm
Visibility: 10 or more miles (16+ km)
Ceiling: 3000 feet AGL
Clouds: overcast cloud deck at 3000 feet AGL
Weather: no significant weather observed at this time

METAR text: KMHT 181953Z 18005KT 10SM FEW025 BKN045 BKN200 02/M06 A2999 RMK AO2 SLP175 T00171056
Conditions at: KMHT (MANCHESTER , NH, US) observed 1953 UTC 18 January 2019
Temperature: 1.7°C (35°F)
Dewpoint: -5.6°C (22°F) [RH = 58%]
Pressure (altimeter): 29.99 inches Hg (1015.7 mb)
[Sea-level pressure: 1017.5 mb]
Winds: from the S (180 degrees) at 6 MPH (5 knots; 2.6 m/s)
Visibility: 10 or more miles (16+ km)
Ceiling: 4500 feet AGL
Clouds: few clouds at 2500 feet AGL
broken clouds at 4500 feet AGL
broken clouds at 20000 feet AGL
Weather: no significant weather observed at this time

METAR text: KMHT 181853Z 21004KT 10SM SCT030 BKN050 01/M07 A3001 RMK AO2 SLP180 T00061072
Conditions at: KMHT (MANCHESTER , NH, US) observed 1853 UTC 18 January 2019
Temperature: 0.6°C (33°F)
Dewpoint: -7.2°C (19°F) [RH = 56%]
Pressure (altimeter): 30.01 inches Hg (1016.3 mb)
[Sea-level pressure: 1018.0 mb]
Winds: from the SSW (210 degrees) at 5 MPH (4 knots; 2.1 m/s)
Visibility: 10 or more miles (16+ km)
Ceiling: 5000 feet AGL
Clouds: scattered clouds at 3000 feet AGL
broken clouds at 5000 feet AGL
Weather: no significant weather observed at this time

METAR text: KMHT 181753Z VRB04KT 10SM OVC031 M01/M08 A3003 RMK AO2 SLP188 T10061083 11006 21061 58036
Conditions at: KMHT (MANCHESTER , NH, US) observed 1753 UTC 18 January 2019
Temperature: -0.6°C (31°F)
Dewpoint: -8.3°C (17°F) [RH = 56%]
Pressure (altimeter): 30.03 inches Hg (1017.0 mb)
[Sea-level pressure: 1018.8 mb]
Winds: variable direction winds at 5 MPH (4 knots; 2.1 m/s)
Visibility: 10 or more miles (16+ km)
Ceiling: 3100 feet AGL
Clouds: overcast cloud deck at 3100 feet AGL
Weather: no significant weather observed at this time

METAR text: KMHT 181653Z 00000KT 10SM OVC044 M02/M10 A3007 RMK AO2 SLP203 T10221100
Conditions at: KMHT (MANCHESTER , NH, US) observed 1653 UTC 18 January 2019
Temperature: -2.2°C (28°F)
Dewpoint: -10.0°C (14°F) [RH = 55%]
Pressure (altimeter): 30.07 inches Hg (1018.4 mb)
[Sea-level pressure: 1020.3 mb]
Winds: calm
Visibility: 10 or more miles (16+ km)
Ceiling: 4400 feet AGL
Clouds: overcast cloud deck at 4400 feet AGL
Weather: no significant weather observed at this time

METAR text: KMHT 181553Z 00000KT 10SM OVC046 M03/M11 A3011 RMK AO2 SLP216 T10281111
Conditions at: KMHT (MANCHESTER , NH, US) observed 1553 UTC 18 January 2019
Temperature: -2.8°C (27°F)
Dewpoint: -11.1°C (12°F) [RH = 53%]
Pressure (altimeter): 30.11 inches Hg (1019.7 mb)
[Sea-level pressure: 1021.6 mb]
Winds: calm
Visibility: 10 or more miles (16+ km)
Ceiling: 4600 feet AGL
Clouds: overcast cloud deck at 4600 feet AGL
Weather: no significant weather observed at this time

METAR text: KMHT 181453Z 00000KT 10SM OVC041 M04/M12 A3013 RMK AO2 SLP225 T10391117 55006
Conditions at: KMHT (MANCHESTER , NH, US) observed 1453 UTC 18 January 2019
Temperature: -3.9°C (25°F)
Dewpoint: -11.7°C (11°F) [RH = 55%]
Pressure (altimeter): 30.13 inches Hg (1020.4 mb)
[Sea-level pressure: 1022.5 mb]
Winds: calm
Visibility: 10 or more miles (16+ km)
Ceiling: 4100 feet AGL
Clouds: overcast cloud deck at 4100 feet AGL
Weather: no significant weather observed at this time

METAR text: KMHT 181353Z 00000KT 10SM FEW026 OVC050 M05/M12 A3013 RMK AO2 SLP224 T10501117
Conditions at: KMHT (MANCHESTER , NH, US) observed 1353 UTC 18 January 2019
Temperature: -5.0°C (23°F)
Dewpoint: -11.7°C (11°F) [RH = 59%]
Pressure (altimeter): 30.13 inches Hg (1020.4 mb)
[Sea-level pressure: 1022.4 mb]
Winds: calm
Visibility: 10 or more miles (16+ km)
Ceiling: 5000 feet AGL
Clouds: few clouds at 2600 feet AGL
overcast cloud deck at 5000 feet AGL
Weather: no significant weather observed at this time

METAR text: KMHT 181253Z 00000KT 10SM OVC050 M06/M12 A3014 RMK AO2 SLP228 T10561117
Conditions at: KMHT (MANCHESTER , NH, US) observed 1253 UTC 18 January 2019
Temperature: -5.6°C (22°F)
Dewpoint: -11.7°C (11°F) [RH = 62%]
Pressure (altimeter): 30.14 inches Hg (1020.7 mb)
[Sea-level pressure: 1022.8 mb]
Winds: calm
Visibility: 10 or more miles (16+ km)
Ceiling: 5000 feet AGL
Clouds: overcast cloud deck at 5000 feet AGL
Weather: no significant weather observed at this time

METAR text: KMHT 181153Z 00000KT 10SM BKN060 OVC200 M06/M12 A3015 RMK AO2 SLP231 T10611117 11050 21067 55013
Conditions at: KMHT (MANCHESTER , NH, US) observed 1153 UTC 18 January 2019
Temperature: -6.1°C (21°F)
Dewpoint: -11.7°C (11°F) [RH = 64%]
Pressure (altimeter): 30.15 inches Hg (1021.1 mb)
[Sea-level pressure: 1023.1 mb]
Winds: calm
Visibility: 10 or more miles (16+ km)
Ceiling: 6000 feet AGL
Clouds: broken clouds at 6000 feet AGL
overcast cloud deck at 20000 feet AGL
Weather: no significant weather observed at this time

METAR text: KMHT 181053Z 00000KT 10SM BKN065 M07/M12 A3014 RMK AO2 SLP228 T10671122
Conditions at: KMHT (MANCHESTER , NH, US) observed 1053 UTC 18 January 2019
Temperature: -6.7°C (20°F)
Dewpoint: -12.2°C (10°F) [RH = 65%]
Pressure (altimeter): 30.14 inches Hg (1020.7 mb)
[Sea-level pressure: 1022.8 mb]
Winds: calm
Visibility: 10 or more miles (16+ km)
Ceiling: 6500 feet AGL
Clouds: broken clouds at 6500 feet AGL
Weather: no significant weather observed at this time

METAR text: KMHT 180953Z 34003KT 10SM OVC070 M06/M13 A3016 RMK AO2 SLP234 T10611128
Conditions at: KMHT (MANCHESTER , NH, US) observed 0953 UTC 18 January 2019
Temperature: -6.1°C (21°F)
Dewpoint: -12.8°C ( 9°F) [RH = 59%]
Pressure (altimeter): 30.16 inches Hg (1021.4 mb)
[Sea-level pressure: 1023.4 mb]
Winds: from the NNW (340 degrees) at 3 MPH (3 knots; 1.5 m/s)
Visibility: 10 or more miles (16+ km)
Ceiling: 7000 feet AGL
Clouds: overcast cloud deck at 7000 feet AGL
Weather: no significant weather observed at this time

METAR text: KMHT 180853Z 00000KT 10SM OVC080 M06/M13 A3019 RMK AO2 SLP245 T10561128 58022
Conditions at: KMHT (MANCHESTER , NH, US) observed 0853 UTC 18 January 2019
Temperature: -5.6°C (22°F)
Dewpoint: -12.8°C ( 9°F) [RH = 57%]
Pressure (altimeter): 30.19 inches Hg (1022.4 mb)
[Sea-level pressure: 1024.5 mb]
Winds: calm
Visibility: 10 or more miles (16+ km)
Ceiling: 8000 feet AGL
Clouds: overcast cloud deck at 8000 feet AGL
Weather: no significant weather observed at this time

METAR text: KMHT 180753Z 00000KT 10SM OVC080 M06/M14 A3024 RMK AO2 SLP260 T10561144
Conditions at: KMHT (MANCHESTER , NH, US) observed 0753 UTC 18 January 2019
Temperature: -5.6°C (22°F)
Dewpoint: -14.4°C ( 6°F) [RH = 50%]
Pressure (altimeter): 30.24 inches Hg (1024.1 mb)
[Sea-level pressure: 1026.0 mb]
Winds: calm
Visibility: 10 or more miles (16+ km)
Ceiling: 8000 feet AGL
Clouds: overcast cloud deck at 8000 feet AGL
Weather: no significant weather observed at this time

METAR text: KMHT 180653Z 00000KT 10SM OVC080 M05/M15 A3024 RMK AO2 SLP261 T10501150
Conditions at: KMHT (MANCHESTER , NH, US) observed 0653 UTC 18 January 2019
Temperature: -5.0°C (23°F)
Dewpoint: -15.0°C ( 5°F) [RH = 45%]
Pressure (altimeter): 30.24 inches Hg (1024.1 mb)
[Sea-level pressure: 1026.1 mb]
Winds: calm
Visibility: 10 or more miles (16+ km)
Ceiling: 8000 feet AGL
Clouds: overcast cloud deck at 8000 feet AGL
Weather: no significant weather observed at this time

METAR text: KMHT 180553Z 00000KT 10SM OVC100 M06/M15 A3026 RMK AO2 SLP267 T10561150 11050 21061 58017
Conditions at: KMHT (MANCHESTER , NH, US) observed 0553 UTC 18 January 2019
Temperature: -5.6°C (22°F)
Dewpoint: -15.0°C ( 5°F) [RH = 47%]
Pressure (altimeter): 30.26 inches Hg (1024.8 mb)
[Sea-level pressure: 1026.7 mb]
Winds: calm
Visibility: 10 or more miles (16+ km)
Ceiling: 10000 feet AGL
Clouds: overcast cloud deck at 10000 feet AGL
Weather: no significant weather observed at this time

METAR text: KMHT 180453Z 00000KT 10SM OVC090 M05/M17 A3028 RMK AO2 SLP276 T10501172 410331117
Conditions at: KMHT (MANCHESTER , NH, US) observed 0453 UTC 18 January 2019
Temperature: -5.0°C (23°F)
Dewpoint: -17.2°C ( 1°F) [RH = 38%]
Pressure (altimeter): 30.28 inches Hg (1025.5 mb)
[Sea-level pressure: 1027.6 mb]
Winds: calm
Visibility: 10 or more miles (16+ km)
Ceiling: 9000 feet AGL
Clouds: overcast cloud deck at 9000 feet AGL
Weather: no significant weather observed at this time

METAR text: KMHT 180353Z 00000KT 10SM OVC100 M06/M17 A3030 RMK AO2 SLP282 T10561167
Conditions at: KMHT (MANCHESTER , NH, US) observed 0353 UTC 18 January 2019
Temperature: -5.6°C (22°F)
Dewpoint: -16.7°C ( 2°F) [RH = 41%]
Pressure (altimeter): 30.30 inches Hg (1026.2 mb)
[Sea-level pressure: 1028.2 mb]
Winds: calm
Visibility: 10 or more miles (16+ km)
Ceiling: 10000 feet AGL
Clouds: overcast cloud deck at 10000 feet AGL
Weather: no significant weather observed at this time

METAR text: KMHT 180253Z 00000KT 10SM OVC110 M06/M17 A3031 RMK AO2 SLP286 T10611172 56003
Conditions at: KMHT (MANCHESTER , NH, US) observed 0253 UTC 18 January 2019
Temperature: -6.1°C (21°F)
Dewpoint: -17.2°C ( 1°F) [RH = 41%]
Pressure (altimeter): 30.31 inches Hg (1026.5 mb)
[Sea-level pressure: 1028.6 mb]
Winds: calm
Visibility: 10 or more miles (16+ km)
Ceiling: 11000 feet AGL
Clouds: overcast cloud deck at 11000 feet AGL
Weather: no significant weather observed at this time

METAR text: KMHT 180153Z 00000KT 10SM OVC130 M06/M18 A3031 RMK AO2 SLP286 T10561183
Conditions at: KMHT (MANCHESTER , NH, US) observed 0153 UTC 18 January 2019
Temperature: -5.6°C (22°F)
Dewpoint: -18.3°C (-1°F) [RH = 36%]
Pressure (altimeter): 30.31 inches Hg (1026.5 mb)
[Sea-level pressure: 1028.6 mb]
Winds: calm
Visibility: 10 or more miles (16+ km)
Ceiling: 13000 feet AGL
Clouds: overcast cloud deck at 13000 feet AGL
Weather: no significant weather observed at this time

METAR text: KMHT 180053Z 00000KT 10SM OVC140 M06/M19 A3032 RMK AO2 SLP288 T10561189
Conditions at: KMHT (MANCHESTER , NH, US) observed 0053 UTC 18 January 2019
Temperature: -5.6°C (22°F)
Dewpoint: -18.9°C (-2°F) [RH = 34%]
Pressure (altimeter): 30.32 inches Hg (1026.8 mb)
[Sea-level pressure: 1028.8 mb]
Winds: calm
Visibility: 10 or more miles (16+ km)
Ceiling: 14000 feet AGL
Clouds: overcast cloud deck at 14000 feet AGL
Weather: no significant weather observed at this time

Forecast for: KMHT (MANCHESTER , NH, US)
Text: KMHT 191126Z 1912/2012 01007KT P6SM FEW040 SCT200
Forecast period: 1200 UTC 19 January 2019 to 0100 UTC 20 January 2019
Forecast type: FROM: standard forecast or significant change
Winds: from the N (10 degrees) at 8 MPH (7 knots; 3.6 m/s)
Visibility: 6 or more miles 10+ km)
Ceiling: at least 12,000 feet AGL
Clouds: few clouds at 4000 feet AGL
scattered clouds at 20000 feet AGL
Weather: no significant weather forecast for this period
Text: FM200100 04007KT 1SM -SN OVC025
Forecast period: 0100 to 0600 UTC 20 January 2019
Forecast type: FROM: standard forecast or significant change
Winds: from the NE (40 degrees) at 8 MPH (7 knots; 3.6 m/s)
Visibility: 1.00 miles (1.61 km)
Ceiling: 2500 feet AGL
Clouds: overcast cloud deck at 2500 feet AGL
Weather: -SN  (light snow)
Text: FM200600 04009KT 1/2SM SN OVC010
Forecast period: 0600 to 1200 UTC 20 January 2019
Forecast type: FROM: standard forecast or significant change
Winds: from the NE (40 degrees) at 10 MPH (9 knots; 4.6 m/s)
Visibility: 0.50 miles (0.80 km)
Ceiling: 1000 feet AGL
Clouds: overcast cloud deck at 1000 feet AGL
Weather: SN  (moderate snow)